Rio Bananal, Brazil
Current Conditions -  °F | °C
As of 2:00 PM on Thursday 27 Nov 2014 (Local Time) from SBVT Reporting Station
Broken Clouds Broken Clouds  
Wind Chill: 32°   Ceiling: 10000
Heat Index: 33°   Visibility: 6mi
Dew Point: 18°   Wind: 13mph
Humidity: 43%   Direction: 360°N
Pressure: 29.83"   Gusts: NA
Location:  19.26°S, 40.34°W
Report Text: SBVT 271600Z 36011KT 9999 FEW040 BKN100 32/18 Q1010
Loading
Personal Weather Stations






























Interactive Weather Map New forecast layout! Learn more

10-Day Weather Forecast

Advertisements
Track Severe Weather on mobile